sensor_id;sensor_type;location;lat;lon;timestamp;P1;durP1;ratioP1;P2;durP2;ratioP2
84713;SDS011;74938;42.658;23.248;2024-01-25T00:01:28;3.10;;;1.25;;
84713;SDS011;74938;42.658;23.248;2024-01-25T00:03:54;1.83;;;1.02;;
84713;SDS011;74938;42.658;23.248;2024-01-25T00:06:19;11.45;;;4.65;;
84713;SDS011;74938;42.658;23.248;2024-01-25T00:08:46;18.38;;;8.35;;
84713;SDS011;74938;42.658;23.248;2024-01-25T00:11:11;20.77;;;9.70;;
84713;SDS011;74938;42.658;23.248;2024-01-25T00:13:36;21.08;;;10.15;;
84713;SDS011;74938;42.658;23.248;2024-01-25T00:16:03;18.92;;;8.93;;
84713;SDS011;74938;42.658;23.248;2024-01-25T00:18:29;28.75;;;12.75;;
84713;SDS011;74938;42.658;23.248;2024-01-25T00:20:54;20.10;;;9.52;;
84713;SDS011;74938;42.658;23.248;2024-01-25T00:23:20;33.42;;;11.98;;
84713;SDS011;74938;42.658;23.248;2024-01-25T00:25:45;12.90;;;7.03;;
84713;SDS011;74938;42.658;23.248;2024-01-25T00:28:11;10.60;;;5.90;;
84713;SDS011;74938;42.658;23.248;2024-01-25T00:30:38;6.38;;;3.20;;
84713;SDS011;74938;42.658;23.248;2024-01-25T00:33:03;8.10;;;2.92;;
84713;SDS011;74938;42.658;23.248;2024-01-25T00:35:29;7.57;;;3.30;;
84713;SDS011;74938;42.658;23.248;2024-01-25T00:37:55;11.48;;;3.22;;
84713;SDS011;74938;42.658;23.248;2024-01-25T00:40:21;2.40;;;1.23;;
84713;SDS011;74938;42.658;23.248;2024-01-25T00:42:47;5.03;;;1.88;;
84713;SDS011;74938;42.658;23.248;2024-01-25T00:45:22;6.72;;;2.33;;
84713;SDS011;74938;42.658;23.248;2024-01-25T00:47:48;5.65;;;1.95;;
84713;SDS011;74938;42.658;23.248;2024-01-25T00:50:14;3.83;;;1.90;;
84713;SDS011;74938;42.658;23.248;2024-01-25T00:52:42;5.03;;;2.03;;
84713;SDS011;74938;42.658;23.248;2024-01-25T00:55:08;7.13;;;1.88;;
84713;SDS011;74938;42.658;23.248;2024-01-25T00:57:35;9.00;;;2.80;;
84713;SDS011;74938;42.658;23.248;2024-01-25T01:00:00;7.78;;;2.50;;
84713;SDS011;74938;42.658;23.248;2024-01-25T01:02:28;5.60;;;2.83;;
84713;SDS011;74938;42.658;23.248;2024-01-25T01:04:59;7.13;;;2.75;;
84713;SDS011;74938;42.658;23.248;2024-01-25T01:07:24;7.50;;;2.60;;
84713;SDS011;74938;42.658;23.248;2024-01-25T01:09:50;3.88;;;1.77;;
84713;SDS011;74938;42.658;23.248;2024-01-25T01:12:15;7.50;;;3.60;;
84713;SDS011;74938;42.658;23.248;2024-01-25T01:14:41;5.30;;;2.13;;
84713;SDS011;74938;42.658;23.248;2024-01-25T01:17:07;5.03;;;1.98;;
84713;SDS011;74938;42.658;23.248;2024-01-25T01:19:32;7.18;;;3.17;;
84713;SDS011;74938;42.658;23.248;2024-01-25T01:21:58;7.97;;;2.88;;
84713;SDS011;74938;42.658;23.248;2024-01-25T01:24:23;6.03;;;2.50;;
84713;SDS011;74938;42.658;23.248;2024-01-25T01:26:49;5.68;;;2.70;;
84713;SDS011;74938;42.658;23.248;2024-01-25T01:29:15;7.20;;;3.15;;
84713;SDS011;74938;42.658;23.248;2024-01-25T01:31:41;7.32;;;3.15;;
84713;SDS011;74938;42.658;23.248;2024-01-25T01:34:06;7.30;;;1.40;;
84713;SDS011;74938;42.658;23.248;2024-01-25T01:36:32;7.78;;;2.63;;
84713;SDS011;74938;42.658;23.248;2024-01-25T01:38:57;7.72;;;3.25;;
84713;SDS011;74938;42.658;23.248;2024-01-25T01:41:22;4.85;;;1.88;;
84713;SDS011;74938;42.658;23.248;2024-01-25T01:43:51;7.40;;;2.63;;
84713;SDS011;74938;42.658;23.248;2024-01-25T01:46:20;2.67;;;1.50;;
84713;SDS011;74938;42.658;23.248;2024-01-25T01:48:51;7.50;;;1.95;;
84713;SDS011;74938;42.658;23.248;2024-01-25T01:51:16;5.65;;;2.38;;
84713;SDS011;74938;42.658;23.248;2024-01-25T01:53:42;2.97;;;1.38;;
84713;SDS011;74938;42.658;23.248;2024-01-25T01:56:08;4.07;;;1.33;;
84713;SDS011;74938;42.658;23.248;2024-01-25T01:58:34;2.38;;;1.27;;
84713;SDS011;74938;42.658;23.248;2024-01-25T02:01:00;2.55;;;1.10;;
84713;SDS011;74938;42.658;23.248;2024-01-25T02:03:27;2.28;;;1.42;;
84713;SDS011;74938;42.658;23.248;2024-01-25T02:05:52;4.47;;;1.23;;
84713;SDS011;74938;42.658;23.248;2024-01-25T02:08:18;4.10;;;1.02;;
84713;SDS011;74938;42.658;23.248;2024-01-25T02:10:44;6.35;;;1.70;;
84713;SDS011;74938;42.658;23.248;2024-01-25T02:13:09;5.20;;;1.45;;
84713;SDS011;74938;42.658;23.248;2024-01-25T02:15:34;3.53;;;1.67;;
84713;SDS011;74938;42.658;23.248;2024-01-25T02:18:00;1.98;;;1.25;;
84713;SDS011;74938;42.658;23.248;2024-01-25T02:20:26;2.33;;;1.00;;
84713;SDS011;74938;42.658;23.248;2024-01-25T02:22:51;2.58;;;1.00;;
84713;SDS011;74938;42.658;23.248;2024-01-25T02:25:17;1.73;;;0.65;;
84713;SDS011;74938;42.658;23.248;2024-01-25T02:27:42;1.10;;;0.77;;
84713;SDS011;74938;42.658;23.248;2024-01-25T02:30:07;1.02;;;0.63;;
84713;SDS011;74938;42.658;23.248;2024-01-25T02:32:33;1.95;;;0.75;;
84713;SDS011;74938;42.658;23.248;2024-01-25T02:34:59;1.05;;;0.75;;
84713;SDS011;74938;42.658;23.248;2024-01-25T02:37:25;1.05;;;0.45;;
84713;SDS011;74938;42.658;23.248;2024-01-25T02:39:50;1.08;;;0.63;;
84713;SDS011;74938;42.658;23.248;2024-01-25T02:42:16;1.67;;;0.80;;
84713;SDS011;74938;42.658;23.248;2024-01-25T02:44:42;2.22;;;1.05;;
84713;SDS011;74938;42.658;23.248;2024-01-25T02:47:08;2.67;;;0.80;;
84713;SDS011;74938;42.658;23.248;2024-01-25T02:49:34;1.35;;;0.82;;
84713;SDS011;74938;42.658;23.248;2024-01-25T02:51:59;2.22;;;0.60;;
84713;SDS011;74938;42.658;23.248;2024-01-25T02:54:25;3.63;;;1.08;;
84713;SDS011;74938;42.658;23.248;2024-01-25T02:56:50;3.95;;;0.73;;
84713;SDS011;74938;42.658;23.248;2024-01-25T02:59:15;4.30;;;1.10;;
84713;SDS011;74938;42.658;23.248;2024-01-25T03:01:41;3.90;;;1.60;;
84713;SDS011;74938;42.658;23.248;2024-01-25T03:04:06;3.75;;;1.17;;
84713;SDS011;74938;42.658;23.248;2024-01-25T03:06:32;3.10;;;1.20;;
84713;SDS011;74938;42.658;23.248;2024-01-25T03:08:57;3.35;;;1.10;;
84713;SDS011;74938;42.658;23.248;2024-01-25T03:11:23;3.78;;;0.80;;
84713;SDS011;74938;42.658;23.248;2024-01-25T03:13:48;2.80;;;1.25;;
84713;SDS011;74938;42.658;23.248;2024-01-25T03:16:13;1.63;;;0.90;;
84713;SDS011;74938;42.658;23.248;2024-01-25T03:18:39;0.30;;;0.30;;
84713;SDS011;74938;42.658;23.248;2024-01-25T03:21:04;0.85;;;0.50;;
84713;SDS011;74938;42.658;23.248;2024-01-25T03:23:29;2.05;;;0.68;;
84713;SDS011;74938;42.658;23.248;2024-01-25T03:25:55;0.73;;;0.63;;
84713;SDS011;74938;42.658;23.248;2024-01-25T03:28:20;3.90;;;1.25;;
84713;SDS011;74938;42.658;23.248;2024-01-25T03:30:45;1.38;;;0.90;;
84713;SDS011;74938;42.658;23.248;2024-01-25T03:33:11;1.92;;;0.90;;
84713;SDS011;74938;42.658;23.248;2024-01-25T03:35:36;1.90;;;0.60;;
84713;SDS011;74938;42.658;23.248;2024-01-25T03:38:02;3.55;;;0.90;;
84713;SDS011;74938;42.658;23.248;2024-01-25T03:40:27;1.13;;;0.80;;
84713;SDS011;74938;42.658;23.248;2024-01-25T03:42:53;0.73;;;0.55;;
84713;SDS011;74938;42.658;23.248;2024-01-25T03:45:18;1.55;;;1.02;;
84713;SDS011;74938;42.658;23.248;2024-01-25T03:47:44;1.90;;;0.82;;
84713;SDS011;74938;42.658;23.248;2024-01-25T03:50:09;1.85;;;0.65;;
84713;SDS011;74938;42.658;23.248;2024-01-25T03:52:35;2.65;;;1.05;;
84713;SDS011;74938;42.658;23.248;2024-01-25T03:55:00;0.82;;;0.63;;
84713;SDS011;74938;42.658;23.248;2024-01-25T03:57:25;1.35;;;0.77;;
84713;SDS011;74938;42.658;23.248;2024-01-25T03:59:51;1.27;;;0.82;;
84713;SDS011;74938;42.658;23.248;2024-01-25T04:02:16;1.73;;;0.85;;
84713;SDS011;74938;42.658;23.248;2024-01-25T04:04:42;0.63;;;0.40;;
84713;SDS011;74938;42.658;23.248;2024-01-25T04:07:07;0.90;;;0.65;;
84713;SDS011;74938;42.658;23.248;2024-01-25T04:09:32;1.52;;;0.70;;
84713;SDS011;74938;42.658;23.248;2024-01-25T04:11:58;0.50;;;0.40;;
84713;SDS011;74938;42.658;23.248;2024-01-25T04:14:23;2.30;;;0.63;;
84713;SDS011;74938;42.658;23.248;2024-01-25T04:16:48;2.70;;;0.77;;
84713;SDS011;74938;42.658;23.248;2024-01-25T04:19:14;0.40;;;0.40;;
84713;SDS011;74938;42.658;23.248;2024-01-25T04:21:39;2.70;;;0.60;;
84713;SDS011;74938;42.658;23.248;2024-01-25T04:24:05;1.13;;;0.93;;
84713;SDS011;74938;42.658;23.248;2024-01-25T04:26:30;1.00;;;0.52;;
84713;SDS011;74938;42.658;23.248;2024-01-25T04:28:56;0.98;;;0.68;;
84713;SDS011;74938;42.658;23.248;2024-01-25T04:31:21;2.53;;;0.80;;
84713;SDS011;74938;42.658;23.248;2024-01-25T04:33:47;1.88;;;0.70;;
84713;SDS011;74938;42.658;23.248;2024-01-25T04:36:12;2.75;;;0.85;;
84713;SDS011;74938;42.658;23.248;2024-01-25T04:38:37;2.15;;;1.05;;
84713;SDS011;74938;42.658;23.248;2024-01-25T04:41:03;1.15;;;0.68;;
84713;SDS011;74938;42.658;23.248;2024-01-25T04:43:33;1.17;;;0.65;;
84713;SDS011;74938;42.658;23.248;2024-01-25T04:46:00;0.65;;;0.65;;
84713;SDS011;74938;42.658;23.248;2024-01-25T04:48:26;2.42;;;1.08;;
84713;SDS011;74938;42.658;23.248;2024-01-25T04:50:51;1.73;;;0.75;;
84713;SDS011;74938;42.658;23.248;2024-01-25T04:53:16;1.83;;;0.70;;
84713;SDS011;74938;42.658;23.248;2024-01-25T04:55:42;1.45;;;0.85;;
84713;SDS011;74938;42.658;23.248;2024-01-25T04:58:07;1.73;;;0.77;;
84713;SDS011;74938;42.658;23.248;2024-01-25T05:00:32;3.83;;;0.95;;
84713;SDS011;74938;42.658;23.248;2024-01-25T05:02:58;2.90;;;0.98;;
84713;SDS011;74938;42.658;23.248;2024-01-25T05:05:24;2.38;;;0.63;;
84713;SDS011;74938;42.658;23.248;2024-01-25T05:07:50;2.25;;;1.10;;
84713;SDS011;74938;42.658;23.248;2024-01-25T05:10:15;1.45;;;0.80;;
84713;SDS011;74938;42.658;23.248;2024-01-25T05:12:40;2.15;;;0.73;;
84713;SDS011;74938;42.658;23.248;2024-01-25T05:15:06;3.15;;;0.88;;
84713;SDS011;74938;42.658;23.248;2024-01-25T05:17:33;1.45;;;0.70;;
84713;SDS011;74938;42.658;23.248;2024-01-25T05:19:58;1.33;;;0.65;;
84713;SDS011;74938;42.658;23.248;2024-01-25T05:22:24;2.55;;;0.75;;
84713;SDS011;74938;42.658;23.248;2024-01-25T05:24:49;2.10;;;1.02;;
84713;SDS011;74938;42.658;23.248;2024-01-25T05:27:14;3.35;;;0.82;;
84713;SDS011;74938;42.658;23.248;2024-01-25T05:29:40;3.00;;;0.90;;
84713;SDS011;74938;42.658;23.248;2024-01-25T05:32:05;2.08;;;1.02;;
84713;SDS011;74938;42.658;23.248;2024-01-25T05:34:30;1.10;;;0.70;;
84713;SDS011;74938;42.658;23.248;2024-01-25T05:36:56;0.50;;;0.50;;
84713;SDS011;74938;42.658;23.248;2024-01-25T05:39:21;2.78;;;1.02;;
84713;SDS011;74938;42.658;23.248;2024-01-25T05:41:47;1.30;;;0.63;;
84713;SDS011;74938;42.658;23.248;2024-01-25T05:44:12;3.00;;;1.20;;
84713;SDS011;74938;42.658;23.248;2024-01-25T05:46:37;4.70;;;0.88;;
84713;SDS011;74938;42.658;23.248;2024-01-25T05:49:03;1.50;;;0.68;;
84713;SDS011;74938;42.658;23.248;2024-01-25T05:51:28;1.45;;;1.15;;
84713;SDS011;74938;42.658;23.248;2024-01-25T05:53:54;3.55;;;1.25;;
84713;SDS011;74938;42.658;23.248;2024-01-25T05:56:19;2.03;;;1.00;;
84713;SDS011;74938;42.658;23.248;2024-01-25T05:58:44;0.63;;;0.57;;
84713;SDS011;74938;42.658;23.248;2024-01-25T06:01:10;1.52;;;0.93;;
84713;SDS011;74938;42.658;23.248;2024-01-25T06:03:35;4.38;;;1.50;;
84713;SDS011;74938;42.658;23.248;2024-01-25T06:06:00;3.30;;;1.17;;
84713;SDS011;74938;42.658;23.248;2024-01-25T06:08:26;2.70;;;1.02;;
84713;SDS011;74938;42.658;23.248;2024-01-25T06:10:51;2.88;;;0.70;;
84713;SDS011;74938;42.658;23.248;2024-01-25T06:13:17;3.70;;;0.93;;
84713;SDS011;74938;42.658;23.248;2024-01-25T06:15:42;2.28;;;0.90;;
84713;SDS011;74938;42.658;23.248;2024-01-25T06:18:07;1.63;;;1.08;;
84713;SDS011;74938;42.658;23.248;2024-01-25T06:20:33;1.98;;;1.10;;
84713;SDS011;74938;42.658;23.248;2024-01-25T06:22:58;3.35;;;1.05;;
84713;SDS011;74938;42.658;23.248;2024-01-25T06:25:23;5.22;;;1.83;;
84713;SDS011;74938;42.658;23.248;2024-01-25T06:27:49;3.03;;;1.48;;
84713;SDS011;74938;42.658;23.248;2024-01-25T06:30:14;5.68;;;0.90;;
84713;SDS011;74938;42.658;23.248;2024-01-25T06:32:40;4.25;;;1.52;;
84713;SDS011;74938;42.658;23.248;2024-01-25T06:35:05;4.40;;;1.98;;
84713;SDS011;74938;42.658;23.248;2024-01-25T06:37:31;5.40;;;1.85;;
84713;SDS011;74938;42.658;23.248;2024-01-25T06:39:57;8.75;;;2.22;;
84713;SDS011;74938;42.658;23.248;2024-01-25T06:42:22;3.05;;;1.35;;
84713;SDS011;74938;42.658;23.248;2024-01-25T06:44:47;7.00;;;3.45;;
84713;SDS011;74938;42.658;23.248;2024-01-25T06:47:13;8.48;;;3.67;;
84713;SDS011;74938;42.658;23.248;2024-01-25T06:49:38;10.43;;;3.20;;
84713;SDS011;74938;42.658;23.248;2024-01-25T06:52:04;4.90;;;2.00;;
84713;SDS011;74938;42.658;23.248;2024-01-25T06:54:29;5.47;;;1.63;;
84713;SDS011;74938;42.658;23.248;2024-01-25T06:56:56;5.93;;;2.00;;
84713;SDS011;74938;42.658;23.248;2024-01-25T06:59:21;4.90;;;1.40;;
84713;SDS011;74938;42.658;23.248;2024-01-25T07:01:47;4.50;;;1.50;;
84713;SDS011;74938;42.658;23.248;2024-01-25T07:04:12;6.45;;;1.67;;
84713;SDS011;74938;42.658;23.248;2024-01-25T07:06:38;3.72;;;1.95;;
84713;SDS011;74938;42.658;23.248;2024-01-25T07:09:03;5.57;;;2.10;;
84713;SDS011;74938;42.658;23.248;2024-01-25T07:11:29;4.07;;;1.35;;
84713;SDS011;74938;42.658;23.248;2024-01-25T07:13:54;4.70;;;2.20;;
84713;SDS011;74938;42.658;23.248;2024-01-25T07:16:19;4.80;;;1.80;;
84713;SDS011;74938;42.658;23.248;2024-01-25T07:18:45;3.85;;;2.10;;
84713;SDS011;74938;42.658;23.248;2024-01-25T07:21:10;4.68;;;1.55;;
84713;SDS011;74938;42.658;23.248;2024-01-25T07:23:36;4.35;;;1.83;;
84713;SDS011;74938;42.658;23.248;2024-01-25T07:26:01;3.70;;;1.95;;
84713;SDS011;74938;42.658;23.248;2024-01-25T07:28:27;8.05;;;2.00;;
84713;SDS011;74938;42.658;23.248;2024-01-25T07:30:52;2.35;;;1.60;;
84713;SDS011;74938;42.658;23.248;2024-01-25T07:33:17;12.52;;;2.20;;
84713;SDS011;74938;42.658;23.248;2024-01-25T07:35:43;5.25;;;1.40;;
84713;SDS011;74938;42.658;23.248;2024-01-25T07:38:11;3.55;;;1.85;;
84713;SDS011;74938;42.658;23.248;2024-01-25T07:40:37;5.63;;;2.17;;
84713;SDS011;74938;42.658;23.248;2024-01-25T07:43:02;5.13;;;1.85;;
84713;SDS011;74938;42.658;23.248;2024-01-25T07:45:28;4.57;;;1.90;;
84713;SDS011;74938;42.658;23.248;2024-01-25T07:47:53;2.92;;;1.52;;
84713;SDS011;74938;42.658;23.248;2024-01-25T07:50:19;8.45;;;1.83;;
84713;SDS011;74938;42.658;23.248;2024-01-25T07:52:44;2.75;;;1.85;;
84713;SDS011;74938;42.658;23.248;2024-01-25T07:55:10;7.65;;;2.00;;
84713;SDS011;74938;42.658;23.248;2024-01-25T07:57:35;7.75;;;1.67;;
84713;SDS011;74938;42.658;23.248;2024-01-25T08:00:01;4.85;;;1.90;;
84713;SDS011;74938;42.658;23.248;2024-01-25T08:02:26;3.78;;;1.67;;
84713;SDS011;74938;42.658;23.248;2024-01-25T08:04:52;4.55;;;1.58;;
84713;SDS011;74938;42.658;23.248;2024-01-25T08:07:18;7.00;;;1.80;;
84713;SDS011;74938;42.658;23.248;2024-01-25T08:09:43;6.82;;;1.55;;
84713;SDS011;74938;42.658;23.248;2024-01-25T08:12:08;2.60;;;1.17;;
84713;SDS011;74938;42.658;23.248;2024-01-25T08:14:34;2.58;;;1.30;;
84713;SDS011;74938;42.658;23.248;2024-01-25T08:16:59;4.88;;;1.85;;
84713;SDS011;74938;42.658;23.248;2024-01-25T08:19:25;1.13;;;0.98;;
84713;SDS011;74938;42.658;23.248;2024-01-25T08:21:50;3.00;;;1.33;;
84713;SDS011;74938;42.658;23.248;2024-01-25T08:24:16;6.63;;;1.80;;
84713;SDS011;74938;42.658;23.248;2024-01-25T08:26:41;9.23;;;1.50;;
84713;SDS011;74938;42.658;23.248;2024-01-25T08:29:07;8.00;;;2.00;;
84713;SDS011;74938;42.658;23.248;2024-01-25T08:31:32;5.43;;;1.85;;
84713;SDS011;74938;42.658;23.248;2024-01-25T08:33:59;5.40;;;1.50;;
84713;SDS011;74938;42.658;23.248;2024-01-25T08:36:24;4.25;;;1.50;;
84713;SDS011;74938;42.658;23.248;2024-01-25T08:38:50;4.90;;;1.58;;
84713;SDS011;74938;42.658;23.248;2024-01-25T08:41:15;2.83;;;1.08;;
84713;SDS011;74938;42.658;23.248;2024-01-25T08:43:41;4.88;;;1.20;;
84713;SDS011;74938;42.658;23.248;2024-01-25T08:46:07;6.38;;;2.15;;
84713;SDS011;74938;42.658;23.248;2024-01-25T08:48:33;5.80;;;1.33;;
84713;SDS011;74938;42.658;23.248;2024-01-25T08:50:59;3.92;;;1.60;;
84713;SDS011;74938;42.658;23.248;2024-01-25T08:53:24;5.78;;;1.52;;
84713;SDS011;74938;42.658;23.248;2024-01-25T08:55:55;2.60;;;1.40;;
84713;SDS011;74938;42.658;23.248;2024-01-25T08:58:21;7.13;;;1.52;;
84713;SDS011;74938;42.658;23.248;2024-01-25T09:00:47;4.45;;;1.48;;
84713;SDS011;74938;42.658;23.248;2024-01-25T09:03:13;4.45;;;1.30;;
84713;SDS011;74938;42.658;23.248;2024-01-25T09:05:39;5.43;;;1.60;;
84713;SDS011;74938;42.658;23.248;2024-01-25T09:08:09;10.43;;;1.55;;
84713;SDS011;74938;42.658;23.248;2024-01-25T09:10:40;4.72;;;1.83;;
84713;SDS011;74938;42.658;23.248;2024-01-25T09:13:06;6.47;;;2.03;;
84713;SDS011;74938;42.658;23.248;2024-01-25T09:15:32;8.57;;;1.80;;
84713;SDS011;74938;42.658;23.248;2024-01-25T09:17:57;2.95;;;1.25;;
84713;SDS011;74938;42.658;23.248;2024-01-25T09:20:22;7.30;;;1.52;;
84713;SDS011;74938;42.658;23.248;2024-01-25T09:22:48;6.07;;;1.77;;
84713;SDS011;74938;42.658;23.248;2024-01-25T09:25:13;7.50;;;1.67;;
84713;SDS011;74938;42.658;23.248;2024-01-25T09:27:41;5.05;;;1.42;;
84713;SDS011;74938;42.658;23.248;2024-01-25T09:30:07;5.15;;;2.20;;
84713;SDS011;74938;42.658;23.248;2024-01-25T09:32:33;4.70;;;1.85;;
84713;SDS011;74938;42.658;23.248;2024-01-25T09:34:58;9.25;;;2.75;;
84713;SDS011;74938;42.658;23.248;2024-01-25T09:37:24;12.98;;;3.83;;
84713;SDS011;74938;42.658;23.248;2024-01-25T09:39:52;18.42;;;7.07;;
84713;SDS011;74938;42.658;23.248;2024-01-25T09:42:18;9.90;;;3.28;;
84713;SDS011;74938;42.658;23.248;2024-01-25T09:44:44;5.20;;;2.00;;
84713;SDS011;74938;42.658;23.248;2024-01-25T09:47:10;24.92;;;7.30;;
84713;SDS011;74938;42.658;23.248;2024-01-25T09:49:36;13.90;;;4.90;;
84713;SDS011;74938;42.658;23.248;2024-01-25T09:52:03;10.23;;;3.85;;
84713;SDS011;74938;42.658;23.248;2024-01-25T09:54:35;37.13;;;9.85;;
84713;SDS011;74938;42.658;23.248;2024-01-25T09:57:02;21.50;;;6.32;;
84713;SDS011;74938;42.658;23.248;2024-01-25T09:59:44;10.25;;;3.22;;
84713;SDS011;74938;42.658;23.248;2024-01-25T10:02:10;8.35;;;2.65;;
84713;SDS011;74938;42.658;23.248;2024-01-25T10:04:36;6.75;;;2.00;;
84713;SDS011;74938;42.658;23.248;2024-01-25T10:07:02;5.05;;;2.28;;
84713;SDS011;74938;42.658;23.248;2024-01-25T10:09:28;19.00;;;7.03;;
84713;SDS011;74938;42.658;23.248;2024-01-25T10:11:56;27.23;;;10.40;;
84713;SDS011;74938;42.658;23.248;2024-01-25T10:14:21;22.65;;;9.88;;
84713;SDS011;74938;42.658;23.248;2024-01-25T10:16:47;12.52;;;6.05;;
84713;SDS011;74938;42.658;23.248;2024-01-25T10:19:12;11.15;;;3.00;;
84713;SDS011;74938;42.658;23.248;2024-01-25T10:21:38;21.25;;;7.60;;
84713;SDS011;74938;42.658;23.248;2024-01-25T10:24:06;19.10;;;6.78;;
84713;SDS011;74938;42.658;23.248;2024-01-25T10:26:31;18.30;;;7.18;;
84713;SDS011;74938;42.658;23.248;2024-01-25T10:29:00;25.33;;;9.15;;
84713;SDS011;74938;42.658;23.248;2024-01-25T10:31:25;14.85;;;6.38;;
84713;SDS011;74938;42.658;23.248;2024-01-25T10:33:52;6.75;;;2.55;;
84713;SDS011;74938;42.658;23.248;2024-01-25T10:36:20;5.15;;;2.22;;
84713;SDS011;74938;42.658;23.248;2024-01-25T10:38:46;16.35;;;6.25;;
84713;SDS011;74938;42.658;23.248;2024-01-25T10:41:13;23.95;;;7.65;;
84713;SDS011;74938;42.658;23.248;2024-01-25T10:43:40;37.05;;;11.07;;
84713;SDS011;74938;42.658;23.248;2024-01-25T10:46:05;10.70;;;3.00;;
84713;SDS011;74938;42.658;23.248;2024-01-25T10:48:32;16.55;;;5.45;;
84713;SDS011;74938;42.658;23.248;2024-01-25T10:50:57;13.68;;;4.28;;
84713;SDS011;74938;42.658;23.248;2024-01-25T10:53:27;20.10;;;5.90;;
84713;SDS011;74938;42.658;23.248;2024-01-25T10:55:57;31.45;;;9.32;;
84713;SDS011;74938;42.658;23.248;2024-01-25T10:58:23;28.30;;;8.70;;
84713;SDS011;74938;42.658;23.248;2024-01-25T11:00:50;10.48;;;2.20;;
84713;SDS011;74938;42.658;23.248;2024-01-25T11:03:17;9.05;;;2.22;;
84713;SDS011;74938;42.658;23.248;2024-01-25T11:05:43;8.70;;;2.22;;
84713;SDS011;74938;42.658;23.248;2024-01-25T11:08:16;9.10;;;2.97;;
84713;SDS011;74938;42.658;23.248;2024-01-25T11:10:43;6.40;;;1.95;;
84713;SDS011;74938;42.658;23.248;2024-01-25T11:13:16;8.82;;;2.67;;
84713;SDS011;74938;42.658;23.248;2024-01-25T11:15:48;5.25;;;2.30;;
84713;SDS011;74938;42.658;23.248;2024-01-25T11:18:13;8.85;;;3.47;;
84713;SDS011;74938;42.658;23.248;2024-01-25T11:20:39;6.80;;;2.13;;
84713;SDS011;74938;42.658;23.248;2024-01-25T11:23:06;8.18;;;3.30;;
84713;SDS011;74938;42.658;23.248;2024-01-25T11:25:34;16.42;;;6.10;;
84713;SDS011;74938;42.658;23.248;2024-01-25T11:28:01;14.18;;;6.15;;
84713;SDS011;74938;42.658;23.248;2024-01-25T11:30:28;14.95;;;4.75;;
84713;SDS011;74938;42.658;23.248;2024-01-25T11:32:55;9.35;;;3.35;;
84713;SDS011;74938;42.658;23.248;2024-01-25T11:35:20;17.35;;;5.88;;
84713;SDS011;74938;42.658;23.248;2024-01-25T11:37:47;20.30;;;6.88;;
84713;SDS011;74938;42.658;23.248;2024-01-25T11:40:14;11.98;;;3.47;;
84713;SDS011;74938;42.658;23.248;2024-01-25T11:42:42;22.27;;;8.93;;
84713;SDS011;74938;42.658;23.248;2024-01-25T11:45:11;16.25;;;5.93;;
84713;SDS011;74938;42.658;23.248;2024-01-25T11:47:38;20.67;;;7.80;;
84713;SDS011;74938;42.658;23.248;2024-01-25T11:50:04;12.70;;;5.70;;
84713;SDS011;74938;42.658;23.248;2024-01-25T11:52:31;8.10;;;4.20;;
84713;SDS011;74938;42.658;23.248;2024-01-25T11:54:58;12.32;;;5.88;;
84713;SDS011;74938;42.658;23.248;2024-01-25T11:59:54;8.73;;;2.70;;
84713;SDS011;74938;42.658;23.248;2024-01-25T12:02:20;15.68;;;5.72;;
84713;SDS011;74938;42.658;23.248;2024-01-25T12:04:46;10.70;;;3.75;;
84713;SDS011;74938;42.658;23.248;2024-01-25T12:07:12;14.35;;;4.30;;
84713;SDS011;74938;42.658;23.248;2024-01-25T12:09:38;6.68;;;2.22;;
84713;SDS011;74938;42.658;23.248;2024-01-25T12:12:03;13.38;;;3.80;;
84713;SDS011;74938;42.658;23.248;2024-01-25T12:14:30;25.60;;;11.48;;
84713;SDS011;74938;42.658;23.248;2024-01-25T12:16:55;13.32;;;5.13;;
84713;SDS011;74938;42.658;23.248;2024-01-25T12:19:21;20.92;;;8.45;;
84713;SDS011;74938;42.658;23.248;2024-01-25T12:21:47;19.77;;;5.03;;
84713;SDS011;74938;42.658;23.248;2024-01-25T12:24:13;12.93;;;4.35;;
84713;SDS011;74938;42.658;23.248;2024-01-25T12:26:39;10.43;;;3.67;;
84713;SDS011;74938;42.658;23.248;2024-01-25T12:29:06;7.68;;;2.92;;
84713;SDS011;74938;42.658;23.248;2024-01-25T12:31:33;8.15;;;3.42;;
84713;SDS011;74938;42.658;23.248;2024-01-25T12:33:59;6.20;;;2.45;;
84713;SDS011;74938;42.658;23.248;2024-01-25T12:36:25;6.63;;;2.40;;
84713;SDS011;74938;42.658;23.248;2024-01-25T12:38:51;11.57;;;3.78;;
84713;SDS011;74938;42.658;23.248;2024-01-25T12:41:16;5.57;;;2.15;;
84713;SDS011;74938;42.658;23.248;2024-01-25T12:43:42;3.67;;;1.45;;
84713;SDS011;74938;42.658;23.248;2024-01-25T12:46:08;9.15;;;2.17;;
84713;SDS011;74938;42.658;23.248;2024-01-25T12:48:33;8.30;;;2.67;;
84713;SDS011;74938;42.658;23.248;2024-01-25T12:50:59;4.40;;;1.60;;
84713;SDS011;74938;42.658;23.248;2024-01-25T12:53:24;7.65;;;2.20;;
84713;SDS011;74938;42.658;23.248;2024-01-25T12:55:50;8.25;;;2.60;;
84713;SDS011;74938;42.658;23.248;2024-01-25T12:58:15;8.13;;;1.55;;
84713;SDS011;74938;42.658;23.248;2024-01-25T13:00:41;6.75;;;1.42;;
84713;SDS011;74938;42.658;23.248;2024-01-25T13:03:08;7.05;;;1.73;;
84713;SDS011;74938;42.658;23.248;2024-01-25T13:05:33;4.28;;;1.30;;
84713;SDS011;74938;42.658;23.248;2024-01-25T13:08:02;4.85;;;1.88;;
84713;SDS011;74938;42.658;23.248;2024-01-25T13:12:54;2.13;;;1.27;;
84713;SDS011;74938;42.658;23.248;2024-01-25T13:15:19;3.67;;;1.48;;
84713;SDS011;74938;42.658;23.248;2024-01-25T13:17:45;7.57;;;2.00;;
84713;SDS011;74938;42.658;23.248;2024-01-25T13:20:11;4.80;;;1.92;;
84713;SDS011;74938;42.658;23.248;2024-01-25T13:22:36;3.17;;;1.25;;
84713;SDS011;74938;42.658;23.248;2024-01-25T13:25:02;3.67;;;1.80;;
84713;SDS011;74938;42.658;23.248;2024-01-25T13:27:28;3.35;;;1.33;;
84713;SDS011;74938;42.658;23.248;2024-01-25T13:29:54;7.65;;;1.55;;
84713;SDS011;74938;42.658;23.248;2024-01-25T13:32:20;6.93;;;1.73;;
84713;SDS011;74938;42.658;23.248;2024-01-25T13:34:45;7.70;;;2.03;;
84713;SDS011;74938;42.658;23.248;2024-01-25T13:37:11;4.65;;;1.55;;
84713;SDS011;74938;42.658;23.248;2024-01-25T13:39:36;8.35;;;3.70;;
84713;SDS011;74938;42.658;23.248;2024-01-25T13:42:02;7.97;;;1.95;;
84713;SDS011;74938;42.658;23.248;2024-01-25T13:44:27;11.20;;;3.03;;
84713;SDS011;74938;42.658;23.248;2024-01-25T13:46:53;4.28;;;2.03;;
84713;SDS011;74938;42.658;23.248;2024-01-25T13:49:20;4.35;;;1.15;;
84713;SDS011;74938;42.658;23.248;2024-01-25T13:51:46;4.63;;;1.90;;
84713;SDS011;74938;42.658;23.248;2024-01-25T13:54:12;2.97;;;1.63;;
84713;SDS011;74938;42.658;23.248;2024-01-25T13:56:37;7.40;;;2.20;;
84713;SDS011;74938;42.658;23.248;2024-01-25T13:59:03;4.03;;;1.55;;
84713;SDS011;74938;42.658;23.248;2024-01-25T14:01:28;5.40;;;1.73;;
84713;SDS011;74938;42.658;23.248;2024-01-25T14:03:53;5.85;;;2.95;;
84713;SDS011;74938;42.658;23.248;2024-01-25T14:06:19;15.50;;;5.75;;
84713;SDS011;74938;42.658;23.248;2024-01-25T14:08:46;7.70;;;3.53;;
84713;SDS011;74938;42.658;23.248;2024-01-25T14:11:11;6.60;;;2.78;;
84713;SDS011;74938;42.658;23.248;2024-01-25T14:13:56;7.55;;;2.00;;
84713;SDS011;74938;42.658;23.248;2024-01-25T14:16:22;7.57;;;2.63;;
84713;SDS011;74938;42.658;23.248;2024-01-25T14:18:47;4.78;;;2.05;;
84713;SDS011;74938;42.658;23.248;2024-01-25T14:21:13;4.05;;;1.67;;
84713;SDS011;74938;42.658;23.248;2024-01-25T14:23:38;5.35;;;1.95;;
84713;SDS011;74938;42.658;23.248;2024-01-25T14:26:03;6.45;;;2.72;;
84713;SDS011;74938;42.658;23.248;2024-01-25T14:28:29;9.05;;;3.00;;